Time;durP1;ratioP1;P1;durP2;ratioP2;P2;SDS_P1;SDS_P2;PMS_P1;PMS_P2;Temp;Humidity;BMP_temperature;BMP_pressure;BME280_temperature;BME280_humidity;BME280_pressure;Samples;Min_cycle;Max_cycle;Signal;HPM_P1;HPM_P2
2022/07/23 00:01:58;;;;;;;3.33;1.70;;;14.50;99.90;;;;;;4973709;28;20121;-77
2022/07/23 00:04:23;;;;;;;3.40;1.65;;;14.40;99.90;;;;;;4973823;28;20693;-77
2022/07/23 00:06:49;;;;;;;7.32;1.92;;;14.50;99.90;;;;;;4973369;28;20097;-77
2022/07/23 00:09:15;;;;;;;4.47;1.95;;;14.50;99.90;;;;;;4973713;28;20484;-77
2022/07/23 00:11:40;;;;;;;5.20;1.90;;;14.60;99.90;;;;;;4973119;28;20054;-77
2022/07/23 00:14:06;;;;;;;4.18;2.05;;;14.50;99.90;;;;;;4979152;28;20129;-77
2022/07/23 00:16:32;;;;;;;7.80;2.00;;;14.50;99.90;;;;;;4973615;28;20046;-77
2022/07/23 00:19:01;;;;;;;3.67;1.70;;;14.50;99.90;;;;;;4973233;28;20065;-77
2022/07/23 00:21:26;;;;;;;2.08;1.88;;;14.40;99.90;;;;;;4973392;28;20106;-78
2022/07/23 00:23:52;;;;;;;2.60;2.13;;;14.40;99.90;;;;;;4973411;28;20099;-77
2022/07/23 00:26:18;;;;;;;3.75;2.17;;;14.40;99.90;;;;;;5011770;23;20030;-75
2022/07/23 00:28:44;;;;;;;2.28;1.77;;;14.30;99.90;;;;;;5008631;28;20030;-75
2022/07/23 00:31:09;;;;;;;4.78;1.88;;;14.30;99.90;;;;;;5000090;28;20034;-75
2022/07/23 00:33:35;;;;;;;4.25;1.90;;;14.30;99.90;;;;;;5003463;28;20029;-75
2022/07/23 00:36:01;;;;;;;3.90;1.80;;;14.30;99.90;;;;;;5009960;28;20105;-75
2022/07/23 00:38:27;;;;;;;3.75;1.85;;;14.30;99.90;;;;;;4998078;28;20024;-75
2022/07/23 00:40:52;;;;;;;5.97;2.60;;;14.40;99.90;;;;;;5000734;28;20022;-75
2022/07/23 00:43:21;;;;;;;5.03;1.75;;;14.40;99.90;;;;;;5000200;28;20030;-75
2022/07/23 00:45:46;;;;;;;3.00;1.80;;;14.50;99.90;;;;;;5004207;28;20057;-75
2022/07/23 00:48:12;;;;;;;2.00;1.88;;;14.60;99.90;;;;;;4999722;28;20053;-75
2022/07/23 00:50:38;;;;;;;2.78;1.55;;;14.60;99.90;;;;;;5000648;28;20460;-75
2022/07/23 00:53:05;;;;;;;4.15;1.83;;;14.60;99.90;;;;;;5004046;28;20044;-75
2022/07/23 00:55:31;;;;;;;2.97;1.95;;;14.70;99.90;;;;;;5000575;28;20030;-75
2022/07/23 00:57:58;;;;;;;5.13;2.13;;;14.80;99.90;;;;;;5001688;28;20025;-75
2022/07/23 01:00:24;;;;;;;3.10;2.00;;;14.90;99.90;;;;;;4999281;28;20462;-75
2022/07/23 01:02:50;;;;;;;3.75;1.88;;;14.90;99.90;;;;;;5003359;28;20108;-75
2022/07/23 01:05:17;;;;;;;5.38;1.92;;;15.00;99.90;;;;;;5000761;28;20072;-75
2022/07/23 01:07:43;;;;;;;1.70;1.60;;;15.00;99.90;;;;;;4998490;28;20034;-76
2022/07/23 01:12:54;;;;;;;3.22;1.67;;;15.00;99.90;;;;;;4997515;28;20418;-75
2022/07/23 01:15:20;;;;;;;4.25;2.70;;;15.00;99.90;;;;;;5000576;28;20038;-75
2022/07/23 01:17:45;;;;;;;3.08;1.67;;;15.00;99.90;;;;;;5001070;28;20029;-75
2022/07/23 01:20:11;;;;;;;3.97;2.13;;;15.00;99.90;;;;;;4999048;28;20092;-75
2022/07/23 01:22:37;;;;;;;5.45;2.20;;;15.10;99.90;;;;;;5001885;28;20018;-75
2022/07/23 01:25:03;;;;;;;3.15;1.90;;;15.10;99.90;;;;;;5002554;28;20032;-75
2022/07/23 01:27:29;;;;;;;3.38;1.98;;;15.20;99.90;;;;;;5016188;23;20050;-77
2022/07/23 01:29:56;;;;;;;3.17;1.65;;;15.20;99.90;;;;;;4988985;28;20034;-78
2022/07/23 01:32:22;;;;;;;1.77;1.67;;;15.20;99.90;;;;;;4990339;28;20026;-78
2022/07/23 01:34:48;;;;;;;2.85;2.05;;;15.20;99.90;;;;;;4991098;28;20157;-77
2022/07/23 01:37:14;;;;;;;4.30;1.80;;;15.30;99.90;;;;;;4989863;28;20105;-77
2022/07/23 01:39:40;;;;;;;3.28;1.80;;;15.30;99.90;;;;;;4990372;28;20030;-78
2022/07/23 01:42:05;;;;;;;5.15;2.28;;;15.40;99.90;;;;;;4990499;28;20029;-78
2022/07/23 01:44:31;;;;;;;3.10;2.28;;;15.40;99.90;;;;;;4989109;28;20023;-78
2022/07/23 01:46:57;;;;;;;3.13;1.98;;;15.30;99.90;;;;;;4990533;28;20380;-78
2022/07/23 01:49:23;;;;;;;3.92;1.67;;;15.50;99.90;;;;;;4978151;28;20026;-78
2022/07/23 01:52:00;;;;;;;3.13;1.73;;;15.50;99.90;;;;;;4972573;28;20015;-78
2022/07/23 01:54:31;;;;;;;7.57;2.25;;;15.60;99.90;;;;;;4983940;28;20129;-78
2022/07/23 01:56:57;;;;;;;3.60;2.30;;;15.60;99.90;;;;;;4972513;28;20146;-78
2022/07/23 01:59:23;;;;;;;4.82;2.10;;;15.60;99.90;;;;;;4972508;28;20023;-77
2022/07/23 02:01:50;;;;;;;2.20;1.67;;;15.60;99.90;;;;;;4972439;28;20019;-78
2022/07/23 02:04:20;;;;;;;2.95;1.80;;;15.60;99.90;;;;;;4972179;28;20019;-78
2022/07/23 02:06:47;;;;;;;4.43;2.78;;;15.70;99.90;;;;;;4971837;28;20492;-77
2022/07/23 02:09:13;;;;;;;4.53;1.70;;;15.70;99.90;;;;;;4972197;28;20587;-78
2022/07/23 02:11:38;;;;;;;5.43;2.20;;;15.70;99.90;;;;;;4972292;28;20102;-78
2022/07/23 02:14:04;;;;;;;7.63;2.58;;;15.80;99.90;;;;;;4972024;28;20098;-78
2022/07/23 02:16:30;;;;;;;4.45;2.58;;;15.80;99.90;;;;;;4972260;28;20026;-77
2022/07/23 02:18:56;;;;;;;1.88;1.75;;;15.80;99.90;;;;;;4972452;28;20069;-77
2022/07/23 02:21:21;;;;;;;3.22;2.00;;;15.80;99.90;;;;;;4972470;28;20035;-78
2022/07/23 02:23:47;;;;;;;4.22;1.95;;;15.90;99.90;;;;;;4975926;28;20025;-78
2022/07/23 02:26:13;;;;;;;4.18;1.85;;;15.90;99.90;;;;;;4992860;23;20035;-75
2022/07/23 02:28:39;;;;;;;3.42;1.40;;;15.90;99.90;;;;;;4970076;28;20043;-75
2022/07/23 02:31:06;;;;;;;2.25;1.60;;;15.90;99.90;;;;;;4971465;28;20034;-76
2022/07/23 02:33:33;;;;;;;3.42;1.70;;;15.90;99.90;;;;;;4971156;28;20034;-75
2022/07/23 02:35:59;;;;;;;6.85;2.35;;;16.00;99.90;;;;;;4970424;28;20019;-75
2022/07/23 02:38:25;;;;;;;2.50;1.67;;;16.00;99.90;;;;;;4952080;28;20050;-76
2022/07/23 02:40:51;;;;;;;1.77;1.67;;;16.00;99.90;;;;;;4951813;29;20055;-75
2022/07/23 02:43:16;;;;;;;4.80;1.83;;;16.00;99.90;;;;;;4951410;29;20062;-75
2022/07/23 02:45:42;;;;;;;4.60;1.52;;;16.00;99.90;;;;;;4951062;28;20038;-76
2022/07/23 02:48:08;;;;;;;4.15;1.77;;;15.90;99.90;;;;;;4951245;28;20031;-75
2022/07/23 02:50:34;;;;;;;2.55;2.30;;;15.90;99.90;;;;;;4954203;29;20027;-75
2022/07/23 02:53:00;;;;;;;4.82;1.90;;;16.00;99.90;;;;;;4955564;29;20492;-75
2022/07/23 02:55:26;;;;;;;2.33;1.88;;;16.00;99.90;;;;;;4968772;28;20031;-75
2022/07/23 02:57:52;;;;;;;2.53;1.85;;;16.00;99.90;;;;;;4954616;28;20428;-75
2022/07/23 03:00:18;;;;;;;3.15;1.55;;;16.00;99.90;;;;;;4955221;29;20023;-75
2022/07/23 03:02:43;;;;;;;3.60;2.53;;;16.00;99.90;;;;;;4955016;29;20020;-75
2022/07/23 03:05:09;;;;;;;2.78;1.83;;;16.10;99.90;;;;;;4954536;29;20081;-75
2022/07/23 03:07:35;;;;;;;1.92;1.75;;;16.10;99.90;;;;;;4955226;29;20019;-75
2022/07/23 03:10:01;;;;;;;2.47;1.73;;;16.20;99.90;;;;;;4954603;29;20027;-75
2022/07/23 03:12:27;;;;;;;3.10;1.90;;;16.10;99.90;;;;;;4955002;29;20034;-75
2022/07/23 03:14:52;;;;;;;2.80;2.00;;;16.10;99.90;;;;;;4954845;29;20034;-75
2022/07/23 03:17:18;;;;;;;4.82;2.63;;;16.10;99.90;;;;;;4954610;28;20056;-75
2022/07/23 03:19:44;;;;;;;2.78;1.70;;;16.10;99.90;;;;;;4954450;29;20031;-75
2022/07/23 03:22:10;;;;;;;2.50;1.85;;;16.10;99.90;;;;;;4954939;29;20038;-75
2022/07/23 03:24:53;;;;;;;10.77;2.00;;;16.10;99.90;;;;;;4954528;28;20476;-75
2022/07/23 03:27:26;;;;;;;2.63;1.50;;;16.10;99.90;;;;;;4969217;28;20101;-75
2022/07/23 03:29:53;;;;;;;2.70;1.60;;;16.10;99.90;;;;;;4954609;29;20083;-75
2022/07/23 03:32:19;;;;;;;2.17;1.67;;;16.10;99.90;;;;;;4954215;28;20019;-75
2022/07/23 03:34:45;;;;;;;5.30;2.10;;;16.10;99.90;;;;;;4954126;29;20028;-75
2022/07/23 03:37:10;;;;;;;5.32;1.90;;;16.00;99.90;;;;;;4953731;29;20022;-75
2022/07/23 03:39:36;;;;;;;2.25;1.98;;;16.00;99.90;;;;;;4954168;29;20033;-76
2022/07/23 03:42:02;;;;;;;2.40;1.85;;;16.00;99.90;;;;;;4954479;29;20031;-75
2022/07/23 03:44:28;;;;;;;3.40;2.25;;;16.00;99.90;;;;;;4954119;29;20516;-75
2022/07/23 03:46:54;;;;;;;3.25;2.25;;;16.00;99.90;;;;;;4953690;29;20027;-75
2022/07/23 03:49:19;;;;;;;4.00;2.00;;;16.00;99.90;;;;;;4954587;29;20110;-75
2022/07/23 03:51:45;;;;;;;6.28;1.63;;;15.90;99.90;;;;;;4954241;29;20023;-75
2022/07/23 03:54:11;;;;;;;2.30;1.67;;;15.90;99.90;;;;;;4953279;28;20039;-75
2022/07/23 03:56:37;;;;;;;5.00;1.67;;;15.70;99.90;;;;;;4974089;23;20050;-85
2022/07/23 03:59:03;;;;;;;2.08;1.67;;;15.70;99.90;;;;;;4955835;28;20039;-82
2022/07/23 04:01:29;;;;;;;2.78;1.65;;;15.60;99.90;;;;;;4952583;28;20024;-82
2022/07/23 04:03:55;;;;;;;2.88;1.67;;;15.50;99.90;;;;;;4954497;28;20030;-83
2022/07/23 04:06:21;;;;;;;4.18;1.67;;;15.40;99.90;;;;;;4954754;28;20051;-82
2022/07/23 04:08:46;;;;;;;3.90;1.60;;;15.30;99.90;;;;;;4954671;28;20381;-82
2022/07/23 04:11:12;;;;;;;2.33;1.60;;;15.20;99.90;;;;;;4953406;28;20412;-82
2022/07/23 04:13:38;;;;;;;2.85;1.67;;;15.10;99.90;;;;;;4953161;28;20062;-83
2022/07/23 04:16:04;;;;;;;3.50;1.90;;;15.00;99.90;;;;;;4954199;28;20070;-82
2022/07/23 04:18:30;;;;;;;5.43;1.83;;;14.90;99.90;;;;;;4954524;28;20035;-82
2022/07/23 04:20:56;;;;;;;2.33;1.45;;;14.90;99.90;;;;;;4953893;28;20019;-81
2022/07/23 04:23:21;;;;;;;2.60;1.80;;;14.80;99.90;;;;;;4954021;28;20020;-83
2022/07/23 04:25:49;;;;;;;3.38;1.85;;;14.80;99.90;;;;;;4953670;28;20023;-83
2022/07/23 04:28:14;;;;;;;3.78;2.20;;;14.70;99.90;;;;;;4956242;28;20023;-82
2022/07/23 04:30:40;;;;;;;8.55;2.55;;;14.70;99.90;;;;;;4953941;28;20050;-82
2022/07/23 04:33:06;;;;;;;4.18;1.75;;;14.60;99.90;;;;;;4954295;28;20031;-82
2022/07/23 04:35:36;;;;;;;6.18;2.20;;;14.50;99.90;;;;;;4952847;28;20032;-82
2022/07/23 04:38:02;;;;;;;3.70;2.05;;;14.50;99.90;;;;;;4952430;28;20031;-82
2022/07/23 04:40:29;;;;;;;2.83;1.77;;;14.40;99.90;;;;;;4952436;28;20122;-82
2022/07/23 04:42:55;;;;;;;7.35;2.00;;;14.40;99.90;;;;;;4946622;28;20090;-82
2022/07/23 04:45:21;;;;;;;4.00;2.05;;;14.30;99.90;;;;;;4954034;28;20059;-82
2022/07/23 04:47:47;;;;;;;4.43;1.92;;;14.30;99.90;;;;;;4953769;28;20015;-82
2022/07/23 04:50:12;;;;;;;3.85;2.10;;;14.30;99.90;;;;;;4952783;28;20034;-82
2022/07/23 04:52:38;;;;;;;5.05;2.90;;;14.20;99.90;;;;;;4952740;28;20039;-82
2022/07/23 04:55:05;;;;;;;3.67;2.50;;;14.20;99.90;;;;;;4956071;28;20043;-82
2022/07/23 04:57:30;;;;;;;3.55;2.20;;;14.20;99.90;;;;;;5009104;23;20073;-75
2022/07/23 04:59:56;;;;;;;4.95;2.10;;;14.20;99.90;;;;;;5009990;28;20115;-75
2022/07/23 05:02:22;;;;;;;3.03;2.17;;;14.20;99.90;;;;;;5011152;28;20033;-75
2022/07/23 05:04:47;;;;;;;4.60;2.53;;;14.20;99.90;;;;;;5011326;28;20029;-75
2022/07/23 05:07:13;;;;;;;2.80;1.95;;;14.10;99.90;;;;;;5010841;28;20030;-75
2022/07/23 05:09:39;;;;;;;3.20;2.25;;;14.20;99.90;;;;;;5011177;28;20084;-75
2022/07/23 05:12:05;;;;;;;2.47;2.15;;;14.20;99.90;;;;;;5010206;28;20062;-75
2022/07/23 05:14:30;;;;;;;4.18;2.15;;;14.30;99.90;;;;;;5010796;28;20065;-75
2022/07/23 05:16:56;;;;;;;6.00;1.85;;;14.30;99.90;;;;;;5011103;28;20064;-75
2022/07/23 05:19:22;;;;;;;5.03;2.20;;;14.30;99.90;;;;;;5011462;28;20037;-75
2022/07/23 05:21:48;;;;;;;3.05;1.75;;;14.40;99.90;;;;;;5011009;28;20103;-75
2022/07/23 05:24:14;;;;;;;2.85;2.25;;;14.40;99.90;;;;;;5011099;28;20060;-75
2022/07/23 05:26:39;;;;;;;3.05;1.95;;;14.50;99.90;;;;;;5010747;28;20048;-75
2022/07/23 05:29:05;;;;;;;3.03;2.03;;;14.40;99.90;;;;;;5010735;28;20576;-75
2022/07/23 05:31:31;;;;;;;5.05;2.83;;;14.50;99.90;;;;;;5010932;28;20485;-75
2022/07/23 05:33:56;;;;;;;4.20;2.13;;;14.60;99.90;;;;;;5011208;28;20042;-75
2022/07/23 05:36:22;;;;;;;4.63;2.45;;;14.80;99.90;;;;;;5010821;28;20026;-75
2022/07/23 05:38:48;;;;;;;5.45;2.42;;;14.90;99.90;;;;;;5010785;28;20018;-75
2022/07/23 05:41:14;;;;;;;4.78;2.28;;;15.00;99.90;;;;;;5010932;28;20084;-75
2022/07/23 05:43:39;;;;;;;4.90;2.20;;;15.00;99.90;;;;;;5010712;28;20084;-75
2022/07/23 05:46:05;;;;;;;3.28;2.22;;;15.00;99.90;;;;;;5010892;28;20049;-75
2022/07/23 05:48:31;;;;;;;3.30;2.17;;;15.10;99.90;;;;;;5011024;28;20467;-75
2022/07/23 05:50:57;;;;;;;4.22;2.63;;;15.10;99.90;;;;;;5010839;28;20022;-75
2022/07/23 05:53:23;;;;;;;3.78;2.70;;;15.20;99.90;;;;;;5010696;28;20386;-75
2022/07/23 05:55:48;;;;;;;4.43;2.22;;;15.20;99.90;;;;;;5010446;28;20030;-75
2022/07/23 05:58:14;;;;;;;3.13;1.77;;;15.40;99.90;;;;;;5014995;23;20505;-82
2022/07/23 06:00:40;;;;;;;3.10;1.70;;;15.40;99.90;;;;;;4990753;28;20027;-82
2022/07/23 06:03:05;;;;;;;3.90;1.98;;;15.50;99.90;;;;;;4991628;28;20041;-88
2022/07/23 06:05:32;;;;;;;4.28;2.13;;;15.50;99.90;;;;;;4991287;28;20077;-82
2022/07/23 06:07:57;;;;;;;3.63;2.17;;;15.60;99.90;;;;;;4988882;28;20102;-83
2022/07/23 06:10:23;;;;;;;4.32;2.13;;;15.60;99.90;;;;;;4990883;28;20026;-82
2022/07/23 06:12:49;;;;;;;4.78;2.30;;;15.70;99.90;;;;;;4989940;28;20025;-83
2022/07/23 06:15:15;;;;;;;6.18;2.22;;;15.80;99.90;;;;;;4990972;28;20034;-82
2022/07/23 06:17:40;;;;;;;5.20;2.42;;;16.00;99.90;;;;;;4989517;28;20033;-82
2022/07/23 06:20:08;;;;;;;5.85;2.83;;;16.20;99.90;;;;;;4990442;28;20034;-81
2022/07/23 06:22:34;;;;;;;3.55;2.55;;;16.40;99.90;;;;;;4989316;28;20049;-81
2022/07/23 06:25:00;;;;;;;5.18;2.80;;;16.70;99.90;;;;;;4993820;28;20099;-81
2022/07/23 06:27:25;;;;;;;6.07;2.60;;;16.90;99.90;;;;;;5002007;28;20030;-82
2022/07/23 06:29:51;;;;;;;4.03;2.92;;;17.30;99.90;;;;;;5000996;28;20075;-82
2022/07/23 06:32:17;;;;;;;5.00;2.83;;;17.60;99.90;;;;;;5001474;28;20026;-82
2022/07/23 06:34:42;;;;;;;5.38;2.53;;;17.80;99.90;;;;;;4993229;28;20113;-83
2022/07/23 06:37:08;;;;;;;3.10;2.08;;;18.00;99.90;;;;;;4994052;28;20090;-83
2022/07/23 06:39:34;;;;;;;5.85;2.33;;;18.30;99.90;;;;;;4992262;28;20022;-83
2022/07/23 06:42:01;;;;;;;5.20;2.72;;;18.40;99.90;;;;;;4992690;28;20022;-83
2022/07/23 06:44:26;;;;;;;2.45;2.10;;;18.50;99.90;;;;;;4993692;28;20041;-83
2022/07/23 06:46:52;;;;;;;2.05;1.63;;;18.40;99.90;;;;;;4992126;28;20026;-83
2022/07/23 06:49:18;;;;;;;4.72;2.97;;;18.40;99.90;;;;;;4986765;28;20053;-85
2022/07/23 06:51:44;;;;;;;3.15;2.20;;;18.40;99.90;;;;;;4994033;28;20027;-79
2022/07/23 06:54:10;;;;;;;5.45;2.20;;;18.30;99.90;;;;;;4995171;28;20034;-81
2022/07/23 06:56:35;;;;;;;4.47;2.08;;;18.40;99.90;;;;;;5014078;23;20011;-78
2022/07/23 06:59:01;;;;;;;2.90;2.22;;;18.50;99.90;;;;;;5012859;28;20092;-78
2022/07/23 07:01:27;;;;;;;3.88;2.33;;;18.50;99.90;;;;;;5013274;28;20076;-79
2022/07/23 07:03:53;;;;;;;3.85;1.88;;;18.50;99.90;;;;;;5013263;28;20014;-76
2022/07/23 07:06:19;;;;;;;3.85;2.13;;;18.50;99.90;;;;;;5013012;28;20017;-76
2022/07/23 07:08:46;;;;;;;3.60;1.98;;;18.40;99.90;;;;;;5000009;28;20018;-76
2022/07/23 07:11:12;;;;;;;5.10;2.40;;;18.40;99.90;;;;;;4993494;28;20026;-75
2022/07/23 07:13:38;;;;;;;3.40;2.42;;;18.50;99.90;;;;;;4993839;28;20026;-75
2022/07/23 07:16:04;;;;;;;3.88;2.47;;;18.50;99.90;;;;;;5001041;28;20681;-75
2022/07/23 07:18:30;;;;;;;5.88;2.17;;;18.60;99.90;;;;;;4991992;28;20109;-75
2022/07/23 07:20:57;;;;;;;3.47;2.22;;;18.70;99.90;;;;;;4993826;28;20157;-75
2022/07/23 07:23:23;;;;;;;7.63;2.65;;;18.80;99.90;;;;;;4993765;28;20026;-75
2022/07/23 07:25:48;;;;;;;5.45;2.45;;;18.80;99.90;;;;;;4993845;28;20069;-75
2022/07/23 07:28:14;;;;;;;2.42;1.90;;;18.90;99.90;;;;;;4990475;28;20035;-75
2022/07/23 07:30:40;;;;;;;4.10;1.95;;;19.00;99.90;;;;;;4995743;28;20022;-75
2022/07/23 07:33:06;;;;;;;6.95;2.28;;;19.10;99.90;;;;;;4994920;28;20085;-75
2022/07/23 07:35:32;;;;;;;2.10;1.90;;;19.30;99.90;;;;;;4993002;28;20446;-76
2022/07/23 07:37:59;;;;;;;4.45;2.08;;;19.40;99.90;;;;;;4993985;28;20108;-76
2022/07/23 07:40:26;;;;;;;2.05;1.70;;;19.60;99.90;;;;;;4993662;28;20034;-75
2022/07/23 07:42:53;;;;;;;2.85;2.00;;;19.80;99.90;;;;;;4993576;28;20018;-75
2022/07/23 07:45:23;;;;;;;3.15;1.85;;;20.00;99.90;;;;;;4994076;28;20356;-75
2022/07/23 07:47:49;;;;;;;3.33;1.75;;;20.20;99.90;;;;;;4993793;28;20404;-75
2022/07/23 07:50:15;;;;;;;4.10;1.75;;;20.40;99.90;;;;;;4993764;28;20030;-75
2022/07/23 07:52:40;;;;;;;4.95;2.22;;;20.50;99.90;;;;;;4998626;28;20034;-76
2022/07/23 07:55:08;;;;;;;4.60;1.73;;;20.60;99.90;;;;;;4991491;28;20045;-75
2022/07/23 07:57:35;;;;;;;5.18;1.75;;;20.80;99.90;;;;;;5022636;23;20100;-83
2022/07/23 08:00:01;;;;;;;1.92;1.25;;;20.80;99.90;;;;;;5012058;28;20025;-83
2022/07/23 08:02:27;;;;;;;2.83;2.05;;;20.90;99.90;;;;;;5012104;28;20162;-81
2022/07/23 08:04:53;;;;;;;3.72;1.90;;;21.10;99.90;;;;;;5012728;28;20100;-83
2022/07/23 08:07:19;;;;;;;3.70;1.52;;;21.30;99.90;;;;;;5012190;28;20386;-83
2022/07/23 08:09:45;;;;;;;5.03;2.13;;;21.40;99.90;;;;;;5011887;28;20014;-82
2022/07/23 08:12:11;;;;;;;6.40;2.03;;;21.60;99.90;;;;;;5011914;28;20026;-82
2022/07/23 08:14:37;;;;;;;2.95;1.80;;;21.70;99.90;;;;;;5010474;28;20117;-81
2022/07/23 08:17:02;;;;;;;3.90;2.10;;;22.00;99.90;;;;;;5010352;28;20025;-81
2022/07/23 08:19:28;;;;;;;4.82;1.88;;;22.10;96.40;;;;;;5011949;28;20018;-83
2022/07/23 08:21:54;;;;;;;4.47;1.92;;;22.10;92.40;;;;;;5026005;28;20033;-81
2022/07/23 08:24:19;;;;;;;4.30;2.15;;;22.10;95.10;;;;;;5011929;28;20041;-82
2022/07/23 08:26:45;;;;;;;3.55;1.90;;;22.20;97.00;;;;;;5011890;28;20018;-84
2022/07/23 08:29:11;;;;;;;3.60;2.25;;;22.50;92.00;;;;;;5011768;28;20030;-83
2022/07/23 08:31:37;;;;;;;4.15;2.10;;;22.80;88.60;;;;;;5011191;28;20952;-83
2022/07/23 08:34:02;;;;;;;4.25;2.50;;;23.00;87.60;;;;;;5010501;28;20038;-80
2022/07/23 08:36:31;;;;;;;4.18;1.98;;;23.00;92.20;;;;;;5011143;28;20025;-84
2022/07/23 08:38:59;;;;;;;2.63;2.03;;;22.80;90.60;;;;;;5011228;28;20510;-83
2022/07/23 08:41:25;;;;;;;3.15;1.70;;;22.50;94.00;;;;;;5010998;28;20026;-85
2022/07/23 08:43:52;;;;;;;1.85;1.65;;;22.60;93.40;;;;;;5010676;28;20041;-85
2022/07/23 08:46:19;;;;;;;4.10;2.05;;;22.90;96.10;;;;;;5010918;28;20030;-85
2022/07/23 08:48:48;;;;;;;5.50;2.05;;;23.10;90.20;;;;;;5009781;28;20026;-84
2022/07/23 08:51:14;;;;;;;3.95;1.70;;;23.60;91.50;;;;;;5011184;28;20102;-84
2022/07/23 08:53:41;;;;;;;4.45;2.03;;;23.60;83.00;;;;;;5010385;28;20013;-84
2022/07/23 08:56:08;;;;;;;4.75;2.20;;;23.40;81.80;;;;;;5009012;28;20030;-83
2022/07/23 08:58:34;;;;;;;4.05;1.83;;;23.30;84.60;;;;;;5011187;28;20026;-82
2022/07/23 09:01:00;;;;;;;2.30;1.65;;;24.00;74.00;;;;;;5026377;28;20085;-83
2022/07/23 09:03:32;;;;;;;2.05;1.58;;;25.00;67.00;;;;;;5010989;28;20022;-84
2022/07/23 09:05:59;;;;;;;3.67;1.58;;;25.90;62.90;;;;;;5011289;28;20056;-83
2022/07/23 09:08:33;;;;;;;4.97;1.70;;;26.40;58.70;;;;;;5009751;28;20084;-83
2022/07/23 09:11:01;;;;;;;2.40;1.30;;;27.30;56.80;;;;;;5009296;28;20036;-83
2022/07/23 09:13:32;;;;;;;2.85;1.70;;;27.40;54.70;;;;;;5009689;28;20057;-83
2022/07/23 09:16:05;;;;;;;3.45;1.75;;;28.20;53.00;;;;;;5010626;28;20501;-85
2022/07/23 09:18:34;;;;;;;3.47;1.40;;;28.40;50.30;;;;;;5009996;28;20022;-84
2022/07/23 09:21:12;;;;;;;1.73;1.40;;;28.40;49.70;;;;;;5010598;28;20486;-85
2022/07/23 09:23:54;;;;;;;4.25;1.48;;;28.60;48.30;;;;;;5010892;28;20033;-83
2022/07/23 09:29:11;;;;;;;4.03;1.67;;;28.90;47.40;;;;;;4991296;28;20137;-76
2022/07/23 09:31:55;;;;;;;3.28;1.25;;;29.00;47.60;;;;;;4990640;28;20034;-76
2022/07/23 09:34:26;;;;;;;6.00;1.50;;;29.00;45.00;;;;;;4990657;28;20041;-76
2022/07/23 09:36:57;;;;;;;2.80;1.40;;;29.00;46.20;;;;;;4990452;28;20476;-77
2022/07/23 09:39:26;;;;;;;4.78;1.42;;;29.60;46.80;;;;;;4984131;28;20023;-78
2022/07/23 09:41:52;;;;;;;4.38;1.05;;;29.70;44.40;;;;;;4989841;28;20105;-77
2022/07/23 09:44:20;;;;;;;3.05;1.00;;;29.90;43.80;;;;;;4990596;28;20491;-78
2022/07/23 09:46:48;;;;;;;1.92;1.20;;;29.70;41.70;;;;;;4990755;28;20030;-78
2022/07/23 09:49:18;;;;;;;1.83;1.00;;;30.20;41.50;;;;;;4990501;28;20025;-79
2022/07/23 09:51:48;;;;;;;2.15;1.20;;;30.70;40.90;;;;;;4991001;28;20049;-77
2022/07/23 09:54:34;;;;;;;6.15;1.40;;;30.40;42.20;;;;;;4993466;28;20057;-78
2022/07/23 09:57:18;;;;;;;5.10;1.42;;;30.50;39.20;;;;;;4990683;28;20033;-79
2022/07/23 09:59:47;;;;;;;2.25;1.10;;;30.70;40.50;;;;;;4994524;28;20483;-78
2022/07/23 10:02:14;;;;;;;4.28;1.10;;;31.20;39.00;;;;;;4995321;28;20061;-78
2022/07/23 10:04:41;;;;;;;2.47;1.10;;;31.00;38.20;;;;;;4993777;28;20068;-78
2022/07/23 10:07:10;;;;;;;2.45;1.15;;;30.90;38.40;;;;;;4994702;28;20025;-78
2022/07/23 10:09:41;;;;;;;4.63;1.25;;;31.00;38.90;;;;;;4995108;28;20602;-78
2022/07/23 10:12:20;;;;;;;1.65;0.90;;;31.40;37.10;;;;;;4988203;28;20069;-78
2022/07/23 10:14:46;;;;;;;5.45;1.10;;;30.90;38.70;;;;;;4994578;28;20426;-78
2022/07/23 10:17:12;;;;;;;3.97;0.88;;;30.70;38.50;;;;;;4994232;28;20051;-78
2022/07/23 10:19:38;;;;;;;4.05;1.20;;;31.30;38.50;;;;;;4994870;28;20094;-78
2022/07/23 10:22:37;;;;;;;1.15;1.00;;;32.00;35.80;;;;;;4994787;28;20101;-76
2022/07/23 10:25:20;;;;;;;1.25;0.80;;;31.70;36.10;;;;;;4992246;28;20042;-77
2022/07/23 10:28:05;;;;;;;1.67;0.82;;;32.40;35.60;;;;;;5022839;23;20064;-75
2022/07/23 10:30:42;;;;;;;3.17;0.90;;;33.00;34.90;;;;;;5014145;28;20105;-75
2022/07/23 10:33:45;;;;;;;2.50;0.80;;;33.30;34.70;;;;;;5007973;28;20021;-74
2022/07/23 10:36:39;;;;;;;3.22;0.77;;;33.80;32.10;;;;;;5010353;28;20038;-75
2022/07/23 10:39:14;;;;;;;2.55;0.75;;;34.10;31.90;;;;;;4994137;28;20058;-75
2022/07/23 10:41:41;;;;;;;2.15;0.85;;;33.80;32.10;;;;;;4993124;28;20026;-75
2022/07/23 10:44:16;;;;;;;1.85;0.90;;;33.80;33.10;;;;;;4994256;28;20029;-75
2022/07/23 10:47:23;;;;;;;4.00;1.25;;;33.80;33.00;;;;;;4987800;28;20097;-75
2022/07/23 10:49:50;;;;;;;2.85;0.93;;;34.00;31.80;;;;;;4990762;28;20014;-76
2022/07/23 10:52:22;;;;;;;2.70;0.70;;;34.40;31.10;;;;;;4993339;28;20085;-74
2022/07/23 10:54:53;;;;;;;5.15;0.85;;;34.00;31.00;;;;;;4993031;28;20030;-75
2022/07/23 10:57:24;;;;;;;3.00;0.80;;;33.80;31.20;;;;;;4993618;28;20490;-74
2022/07/23 11:00:34;;;;;;;3.42;1.00;;;33.90;32.30;;;;;;4993686;28;20105;-74
2022/07/23 11:02:56;;;;;;;2.40;0.77;;;34.20;32.70;;;;;;4994065;28;20026;-74
2022/07/23 11:05:24;;;;;;;2.58;0.70;;;33.60;32.00;;;;;;4993775;28;20026;-74
2022/07/23 11:08:07;;;;;;;3.95;0.90;;;33.00;31.40;;;;;;4993704;28;20427;-74
2022/07/23 11:10:41;;;;;;;1.83;0.70;;;33.00;33.80;;;;;;4987389;28;20026;-74
2022/07/23 11:13:21;;;;;;;3.53;0.80;;;34.50;32.00;;;;;;4987400;28;20018;-75
2022/07/23 11:16:04;;;;;;;2.90;0.80;;;34.60;30.10;;;;;;4987344;28;20030;-73
2022/07/23 11:18:42;;;;;;;2.47;0.90;;;34.30;30.90;;;;;;4986830;28;20310;-74
2022/07/23 11:21:23;;;;;;;0.70;0.50;;;33.80;32.40;;;;;;4993326;28;20026;-74
2022/07/23 11:24:10;;;;;;;3.08;0.80;;;34.20;30.00;;;;;;4993447;28;20015;-75
2022/07/23 11:29:35;;;;;;;2.80;0.95;;;34.50;31.30;;;;;;4995939;28;20046;-76
2022/07/23 11:32:02;;;;;;;1.02;0.50;;;34.60;30.10;;;;;;4992101;28;20077;-78
2022/07/23 11:34:40;;;;;;;3.03;0.80;;;35.00;31.50;;;;;;4990832;28;20100;-78
2022/07/23 11:37:08;;;;;;;2.72;0.95;;;36.20;29.00;;;;;;4994632;28;20029;-77
2022/07/23 11:39:34;;;;;;;2.63;0.90;;;36.10;29.10;;;;;;4992480;28;20021;-77
2022/07/23 11:42:04;;;;;;;2.88;1.20;;;36.50;30.10;;;;;;4992069;28;20026;-77
2022/07/23 11:44:32;;;;;;;1.75;0.70;;;37.10;28.70;;;;;;4991649;28;20544;-77
2022/07/23 11:47:00;;;;;;;1.67;0.70;;;37.20;29.70;;;;;;4992160;28;20717;-77
2022/07/23 11:49:27;;;;;;;4.80;1.23;;;36.60;27.90;;;;;;4993179;28;20033;-76
2022/07/23 11:52:13;;;;;;;2.28;0.80;;;35.70;29.70;;;;;;4993093;28;20024;-77
2022/07/23 11:54:55;;;;;;;1.38;0.60;;;35.70;29.80;;;;;;4992019;28;20080;-78
2022/07/23 11:57:25;;;;;;;3.22;0.55;;;36.00;30.30;;;;;;4992708;28;20459;-77
2022/07/23 11:59:58;;;;;;;3.53;1.10;;;35.30;28.50;;;;;;4991862;28;20030;-76
2022/07/23 12:02:24;;;;;;;4.30;1.38;;;34.90;30.80;;;;;;4993058;28;20114;-77
2022/07/23 12:04:52;;;;;;;3.05;0.70;;;35.90;30.60;;;;;;4986132;28;20061;-77
2022/07/23 12:07:33;;;;;;;5.47;0.98;;;35.70;29.70;;;;;;4992664;28;20030;-77
2022/07/23 12:10:01;;;;;;;2.60;1.33;;;35.60;29.80;;;;;;4992626;28;20041;-77
2022/07/23 12:12:34;;;;;;;1.30;0.68;;;35.60;29.40;;;;;;4992464;28;20029;-78
2022/07/23 12:15:00;;;;;;;1.10;0.57;;;35.70;28.30;;;;;;4992590;28;20419;-77
2022/07/23 12:17:34;;;;;;;1.77;0.70;;;36.60;29.80;;;;;;4992234;28;20026;-77
2022/07/23 12:20:02;;;;;;;2.15;1.10;;;37.00;27.60;;;;;;4992358;28;20033;-77
2022/07/23 12:22:35;;;;;;;2.65;0.70;;;37.00;27.00;;;;;;4992208;28;20099;-77
2022/07/23 12:25:05;;;;;;;2.05;0.50;;;37.10;27.70;;;;;;4992341;28;20025;-77
2022/07/23 12:27:31;;;;;;;2.70;0.80;;;37.40;27.90;;;;;;5012695;23;20046;-84
2022/07/23 12:29:57;;;;;;;1.10;0.57;;;37.00;28.60;;;;;;4993143;28;20272;-84
2022/07/23 12:32:26;;;;;;;1.48;0.90;;;35.70;28.60;;;;;;4992415;28;20076;-86
2022/07/23 12:35:12;;;;;;;1.02;0.47;;;36.10;29.00;;;;;;4992286;28;20035;-85
2022/07/23 12:37:44;;;;;;;2.85;0.88;;;35.50;27.10;;;;;;4992001;28;20081;-87
2022/07/23 12:40:45;;;;;;;2.05;0.77;;;35.70;29.70;;;;;;4992664;28;20090;-85
2022/07/23 12:43:27;;;;;;;1.75;0.68;;;36.50;27.90;;;;;;4981608;28;20030;-87
2022/07/23 12:46:04;;;;;;;2.47;0.80;;;36.40;28.90;;;;;;4986280;28;20499;-86
2022/07/23 12:48:36;;;;;;;1.45;0.50;;;36.30;27.30;;;;;;4985182;28;20018;-88
2022/07/23 12:51:06;;;;;;;1.95;0.68;;;37.70;27.90;;;;;;4991754;28;20015;-85
2022/07/23 12:53:44;;;;;;;2.30;0.80;;;37.90;26.30;;;;;;4990497;28;20141;-83
2022/07/23 12:56:12;;;;;;;1.42;0.50;;;37.30;25.40;;;;;;4994438;28;20026;-87
2022/07/23 12:58:49;;;;;;;1.40;0.55;;;37.00;24.60;;;;;;4990484;28;20479;-88
2022/07/23 13:01:21;;;;;;;6.90;0.88;;;36.40;26.00;;;;;;4985577;28;20051;-84
2022/07/23 13:03:59;;;;;;;2.58;0.45;;;36.00;27.90;;;;;;4990588;28;20500;-88